Time;durP1;ratioP1;P1;durP2;ratioP2;P2;SDS_P1;SDS_P2;PMS_P1;PMS_P2;Temp;Humidity;BMP_temperature;BMP_pressure;BME280_temperature;BME280_humidity;BME280_pressure;Samples;Min_cycle;Max_cycle;Signal;HPM_P1;HPM_P2
2021/12/04 00:01:11;;;;;;;28.38;18.52;;;;;;;;;;5033713;28;20652;-71
2021/12/04 00:03:37;;;;;;;25.58;17.48;;;;;;;;;;5033703;28;20300;-71
2021/12/04 00:06:07;;;;;;;27.73;17.08;;;;;;;;;;5033709;28;20178;-72
2021/12/04 00:08:35;;;;;;;24.77;18.13;;;;;;;;;;5033578;28;20192;-72
2021/12/04 00:11:00;;;;;;;28.77;17.10;;;;;;;;;;5033896;28;20193;-72
2021/12/04 00:13:26;;;;;;;30.13;18.15;;;;;;;;;;5033529;28;20648;-71
2021/12/04 00:15:51;;;;;;;25.52;17.88;;;;;;;;;;5033374;28;20581;-72
2021/12/04 00:18:19;;;;;;;29.20;18.35;;;;;;;;;;5033418;28;20190;-72
2021/12/04 00:20:44;;;;;;;24.30;17.55;;;;;;;;;;5033432;28;20668;-72
2021/12/04 00:23:09;;;;;;;28.60;17.67;;;;;;;;;;5034232;28;20236;-71
2021/12/04 00:25:35;;;;;;;23.60;16.92;;;;;;;;;;5033442;28;20190;-71
2021/12/04 00:28:00;;;;;;;28.42;18.08;;;;;;;;;;5033505;28;20166;-71
2021/12/04 00:30:26;;;;;;;25.25;17.05;;;;;;;;;;5031656;28;20269;-70
2021/12/04 00:32:58;;;;;;;28.90;18.55;;;;;;;;;;5031805;28;20182;-71
2021/12/04 00:51:15;;;;;;;34.58;21.08;;;;;;;;;;5033028;28;20150;-72
2021/12/04 00:53:40;;;;;;;31.20;19.38;;;;;;;;;;5032796;28;20159;-71
2021/12/04 00:56:05;;;;;;;27.25;19.83;;;;;;;;;;5032738;28;20597;-71
2021/12/04 00:58:31;;;;;;;28.48;19.60;;;;;;;;;;5032728;28;20198;-73
2021/12/04 01:00:56;;;;;;;24.98;17.95;;;;;;;;;;5032627;28;20561;-72
2021/12/04 01:03:21;;;;;;;24.05;17.63;;;;;;;;;;5032882;28;20171;-72
2021/12/04 01:05:47;;;;;;;25.02;17.45;;;;;;;;;;5032511;28;20664;-71
2021/12/04 01:08:12;;;;;;;22.98;17.60;;;;;;;;;;5032647;28;20162;-71
2021/12/04 01:10:37;;;;;;;27.17;17.15;;;;;;;;;;5032569;28;20176;-71
2021/12/04 01:13:06;;;;;;;25.52;17.92;;;;;;;;;;5032480;28;20198;-71
2021/12/04 01:15:31;;;;;;;28.35;19.92;;;;;;;;;;5032341;28;20190;-71
2021/12/04 01:17:57;;;;;;;28.30;19.73;;;;;;;;;;5032552;28;20225;-71
2021/12/04 01:20:22;;;;;;;32.70;20.80;;;;;;;;;;5032314;28;20200;-71
2021/12/04 01:22:47;;;;;;;31.85;20.48;;;;;;;;;;5032277;28;20189;-71
2021/12/04 01:25:12;;;;;;;27.55;18.60;;;;;;;;;;5032423;28;20289;-71
2021/12/04 01:27:38;;;;;;;28.63;18.15;;;;;;;;;;5032402;28;20580;-71
2021/12/04 01:30:05;;;;;;;31.92;19.63;;;;;;;;;;5032130;28;20178;-71
2021/12/04 01:32:30;;;;;;;29.25;20.10;;;;;;;;;;5032083;28;20197;-71
2021/12/04 01:34:55;;;;;;;29.50;19.95;;;;;;;;;;5032128;28;20690;-71
2021/12/04 01:37:21;;;;;;;28.10;19.35;;;;;;;;;;5032158;28;20170;-71
2021/12/04 01:39:46;;;;;;;29.92;18.40;;;;;;;;;;5032042;28;20274;-71
2021/12/04 01:42:11;;;;;;;32.75;18.55;;;;;;;;;;5031350;28;20268;-73
2021/12/04 01:44:37;;;;;;;26.85;18.02;;;;;;;;;;5031840;28;20214;-71
2021/12/04 01:47:12;;;;;;;32.65;18.35;;;;;;;;;;5031974;28;20221;-71
2021/12/04 01:49:37;;;;;;;27.85;18.55;;;;;;;;;;5032151;28;20177;-71
2021/12/04 01:52:03;;;;;;;25.75;18.83;;;;;;;;;;5032188;28;20528;-71
2021/12/04 01:54:28;;;;;;;28.40;17.85;;;;;;;;;;5031853;28;20185;-71
2021/12/04 01:56:53;;;;;;;32.22;19.65;;;;;;;;;;5032251;28;20211;-71
2021/12/04 01:59:18;;;;;;;29.60;19.30;;;;;;;;;;5031837;28;20171;-71
2021/12/04 02:01:44;;;;;;;33.83;20.02;;;;;;;;;;5031997;28;20178;-71
2021/12/04 02:04:09;;;;;;;30.77;20.40;;;;;;;;;;5031760;28;20222;-72
2021/12/04 02:06:34;;;;;;;34.25;19.77;;;;;;;;;;5031801;28;20253;-73
2021/12/04 02:09:00;;;;;;;29.50;18.90;;;;;;;;;;5031686;28;20237;-71
2021/12/04 02:11:25;;;;;;;28.67;18.08;;;;;;;;;;5031761;28;20220;-71
2021/12/04 02:13:50;;;;;;;21.25;16.33;;;;;;;;;;5031654;28;20170;-71
2021/12/04 02:16:16;;;;;;;23.73;16.08;;;;;;;;;;5031681;28;20197;-71
2021/12/04 02:18:41;;;;;;;28.02;17.92;;;;;;;;;;5031968;28;20570;-71
2021/12/04 02:21:07;;;;;;;22.65;16.95;;;;;;;;;;5031591;28;20600;-71
2021/12/04 02:23:33;;;;;;;21.60;15.93;;;;;;;;;;5031876;28;20248;-71
2021/12/04 02:25:59;;;;;;;21.33;15.35;;;;;;;;;;5031568;28;20201;-70
2021/12/04 02:28:24;;;;;;;24.83;16.85;;;;;;;;;;5031637;28;20167;-71
2021/12/04 02:30:49;;;;;;;24.88;16.55;;;;;;;;;;5031846;28;20297;-70
2021/12/04 02:33:16;;;;;;;21.63;14.40;;;;;;;;;;5031449;28;20190;-71
2021/12/04 02:35:52;;;;;;;21.98;13.60;;;;;;;;;;5031598;28;20166;-71
2021/12/04 02:38:18;;;;;;;21.73;14.90;;;;;;;;;;5031749;28;20177;-71
2021/12/04 02:40:44;;;;;;;22.33;14.60;;;;;;;;;;5031437;28;20187;-71
2021/12/04 02:43:10;;;;;;;27.10;17.90;;;;;;;;;;5031457;28;20183;-71
2021/12/04 02:45:35;;;;;;;34.53;20.30;;;;;;;;;;5031377;28;20279;-71
2021/12/04 02:48:00;;;;;;;34.92;21.02;;;;;;;;;;5031412;28;20258;-71
2021/12/04 02:50:26;;;;;;;34.20;22.85;;;;;;;;;;5031643;28;20210;-71
2021/12/04 02:52:51;;;;;;;32.83;22.30;;;;;;;;;;5031793;28;20171;-71
2021/12/04 02:55:17;;;;;;;35.17;23.40;;;;;;;;;;5035313;28;20193;-71
2021/12/04 02:57:45;;;;;;;36.15;23.10;;;;;;;;;;5034936;28;20729;-71
2021/12/04 03:00:18;;;;;;;33.15;22.30;;;;;;;;;;5035527;28;20186;-71
2021/12/04 03:02:44;;;;;;;32.38;21.65;;;;;;;;;;5035122;28;20186;-71
2021/12/04 03:05:11;;;;;;;39.42;23.20;;;;;;;;;;5034759;28;20702;-71
2021/12/04 03:07:36;;;;;;;35.08;21.42;;;;;;;;;;5035058;28;20178;-71
2021/12/04 03:10:02;;;;;;;31.77;20.48;;;;;;;;;;5034936;28;20171;-71
2021/12/04 03:12:28;;;;;;;34.55;21.63;;;;;;;;;;5034959;28;20640;-71
2021/12/04 03:14:54;;;;;;;29.40;20.98;;;;;;;;;;5034643;28;20702;-71
2021/12/04 03:17:21;;;;;;;29.38;18.42;;;;;;;;;;5034859;28;20171;-71
2021/12/04 03:19:49;;;;;;;28.92;19.55;;;;;;;;;;5034611;28;20185;-71
2021/12/04 03:22:15;;;;;;;27.27;17.50;;;;;;;;;;5034547;28;20171;-71
2021/12/04 03:24:42;;;;;;;23.05;16.52;;;;;;;;;;5034593;28;20277;-71
2021/12/04 03:27:07;;;;;;;31.90;18.40;;;;;;;;;;5034792;28;20181;-71
2021/12/04 03:29:38;;;;;;;36.75;20.35;;;;;;;;;;5034370;28;20170;-71
2021/12/04 03:42:38;;;;;;;22.08;14.85;;;;;;;;;;5034576;28;20182;-72
2021/12/04 03:45:05;;;;;;;28.25;16.27;;;;;;;;;;5034050;28;20196;-71
2021/12/04 03:47:31;;;;;;;34.03;19.38;;;;;;;;;;5033999;28;20228;-71
2021/12/04 03:49:56;;;;;;;30.95;20.13;;;;;;;;;;5034251;28;20178;-71
2021/12/04 03:52:22;;;;;;;27.02;18.48;;;;;;;;;;5034254;28;20546;-71
2021/12/04 03:54:47;;;;;;;32.35;22.08;;;;;;;;;;5033954;28;20182;-71
2021/12/04 03:57:12;;;;;;;35.80;21.92;;;;;;;;;;5033897;28;20232;-71
2021/12/04 03:59:43;;;;;;;27.85;18.80;;;;;;;;;;5033862;28;20179;-71
2021/12/04 04:02:10;;;;;;;37.22;26.98;;;;;;;;;;5034400;28;20174;-71
2021/12/04 04:04:35;;;;;;;31.83;20.92;;;;;;;;;;5033254;28;20237;-71
2021/12/04 04:07:01;;;;;;;28.15;18.55;;;;;;;;;;5033747;28;20174;-72
2021/12/04 04:09:29;;;;;;;25.52;18.30;;;;;;;;;;5033942;28;20185;-72
2021/12/04 04:11:54;;;;;;;28.35;19.42;;;;;;;;;;5033897;28;20212;-71
2021/12/04 04:14:19;;;;;;;27.95;17.92;;;;;;;;;;5033422;28;20202;-72
2021/12/04 04:16:45;;;;;;;23.38;15.82;;;;;;;;;;5033584;28;20204;-72
2021/12/04 04:19:10;;;;;;;23.92;16.27;;;;;;;;;;5033565;28;20225;-71
2021/12/04 04:21:39;;;;;;;29.50;17.50;;;;;;;;;;5033669;28;20176;-72
2021/12/04 04:24:12;;;;;;;31.05;18.70;;;;;;;;;;5033320;28;20178;-72
2021/12/04 04:26:38;;;;;;;28.00;18.70;;;;;;;;;;5033555;28;20210;-71
2021/12/04 04:29:04;;;;;;;33.75;20.02;;;;;;;;;;5033555;28;20567;-72
2021/12/04 04:31:29;;;;;;;30.55;19.05;;;;;;;;;;5033393;28;20186;-72
2021/12/04 04:34:00;;;;;;;25.88;19.33;;;;;;;;;;5033252;28;20229;-71
2021/12/04 04:58:58;;;;;;;29.98;20.55;;;;;;;;;;5021686;28;20640;-70
2021/12/04 05:14:53;;;;;;;22.73;16.90;;;;;;;;;;5032750;28;20638;-70
2021/12/04 05:17:42;;;;;;;17.80;14.20;;;;;;;;;;5033086;28;20173;-71
2021/12/04 05:20:08;;;;;;;21.65;14.45;;;;;;;;;;5032446;28;20560;-73
2021/12/04 05:22:33;;;;;;;19.60;12.05;;;;;;;;;;5032581;28;20174;-71
2021/12/04 05:24:58;;;;;;;16.90;12.18;;;;;;;;;;5032396;28;20198;-71
2021/12/04 05:27:23;;;;;;;17.33;11.82;;;;;;;;;;5032184;28;20167;-71
2021/12/04 05:29:49;;;;;;;18.20;11.85;;;;;;;;;;5030899;28;20217;-72
2021/12/04 05:32:16;;;;;;;17.65;13.75;;;;;;;;;;5032042;28;20190;-72
2021/12/04 05:34:41;;;;;;;21.48;13.88;;;;;;;;;;5032212;28;20175;-72
2021/12/04 05:37:07;;;;;;;23.73;15.57;;;;;;;;;;5032127;28;20189;-72
2021/12/04 05:39:32;;;;;;;26.33;16.33;;;;;;;;;;5032118;28;20640;-72
2021/12/04 05:41:59;;;;;;;27.85;18.52;;;;;;;;;;5032006;28;20268;-72
2021/12/04 05:44:26;;;;;;;23.42;13.43;;;;;;;;;;5031948;28;20197;-72
2021/12/04 05:46:59;;;;;;;25.42;17.85;;;;;;;;;;5031971;28;20174;-72
2021/12/04 05:49:29;;;;;;;26.23;17.55;;;;;;;;;;5032227;28;20544;-72
2021/12/04 05:54:32;;;;;;;25.35;16.67;;;;;;;;;;5031924;28;20308;-72
2021/12/04 05:56:58;;;;;;;22.48;16.15;;;;;;;;;;5032148;28;20159;-72
2021/12/04 05:59:24;;;;;;;26.00;17.02;;;;;;;;;;5032060;28;20565;-72
2021/12/04 06:01:49;;;;;;;27.67;18.27;;;;;;;;;;5031996;28;20184;-72
2021/12/04 06:04:14;;;;;;;51.25;32.53;;;;;;;;;;5031790;28;20198;-72
2021/12/04 06:06:40;;;;;;;46.20;31.80;;;;;;;;;;5031803;28;20607;-72
2021/12/04 06:09:05;;;;;;;50.55;32.78;;;;;;;;;;5031775;28;20210;-72
2021/12/04 06:11:31;;;;;;;47.97;31.63;;;;;;;;;;5031760;28;20174;-72
2021/12/04 06:13:57;;;;;;;50.78;29.42;;;;;;;;;;5031659;28;20269;-72
2021/12/04 06:16:22;;;;;;;42.38;28.88;;;;;;;;;;5031648;28;20648;-71
2021/12/04 06:18:51;;;;;;;46.85;29.23;;;;;;;;;;5031672;28;20174;-71
2021/12/04 06:24:00;;;;;;;58.50;35.03;;;;;;;;;;5031886;28;20205;-71
2021/12/04 06:26:26;;;;;;;43.47;30.83;;;;;;;;;;5031555;28;20175;-71
2021/12/04 06:28:51;;;;;;;47.13;31.48;;;;;;;;;;5033697;28;20178;-71
2021/12/04 06:31:16;;;;;;;46.50;32.63;;;;;;;;;;5035441;28;20177;-71
2021/12/04 06:33:41;;;;;;;49.90;32.85;;;;;;;;;;5035720;28;20171;-71
2021/12/04 06:36:08;;;;;;;48.95;32.78;;;;;;;;;;5035700;28;20687;-71
2021/12/04 06:38:33;;;;;;;50.83;32.67;;;;;;;;;;5035347;28;20171;-71
2021/12/04 06:40:59;;;;;;;49.03;34.38;;;;;;;;;;5035525;28;20565;-72
2021/12/04 06:43:25;;;;;;;49.63;31.77;;;;;;;;;;5035324;28;20213;-71
2021/12/04 06:45:58;;;;;;;41.28;27.70;;;;;;;;;;5035164;28;20198;-71
2021/12/04 06:48:28;;;;;;;41.03;27.02;;;;;;;;;;5035541;28;20312;-71
2021/12/04 06:51:01;;;;;;;97.78;51.95;;;;;;;;;;5035372;28;20209;-71
2021/12/04 06:53:40;;;;;;;75.32;44.95;;;;;;;;;;5035236;28;20151;-71
2021/12/04 06:56:07;;;;;;;33.78;23.45;;;;;;;;;;5035139;28;20178;-72
2021/12/04 06:58:33;;;;;;;41.30;26.27;;;;;;;;;;5035343;28;20175;-71
2021/12/04 07:00:58;;;;;;;37.03;23.38;;;;;;;;;;5035202;28;20190;-72
2021/12/04 07:03:23;;;;;;;41.17;27.60;;;;;;;;;;5034955;28;20621;-72
2021/12/04 07:05:49;;;;;;;50.70;29.20;;;;;;;;;;5035131;28;20201;-72
2021/12/04 07:08:14;;;;;;;51.58;34.08;;;;;;;;;;5034702;28;20171;-72
2021/12/04 07:10:40;;;;;;;51.20;33.38;;;;;;;;;;5034793;28;20170;-72
2021/12/04 07:13:06;;;;;;;64.45;35.08;;;;;;;;;;5034697;28;20163;-71
2021/12/04 07:15:32;;;;;;;139.15;71.82;;;;;;;;;;5034639;28;20593;-71
2021/12/04 07:18:01;;;;;;;51.67;31.15;;;;;;;;;;5033380;28;20213;-72
2021/12/04 07:20:27;;;;;;;50.47;30.52;;;;;;;;;;5034867;28;20190;-72
2021/12/04 07:22:52;;;;;;;48.03;27.35;;;;;;;;;;5034563;28;20182;-72
2021/12/04 07:25:17;;;;;;;52.50;28.58;;;;;;;;;;5034685;28;20205;-72
2021/12/04 07:27:43;;;;;;;54.85;29.98;;;;;;;;;;5034775;28;20640;-72
2021/12/04 07:30:08;;;;;;;55.60;34.50;;;;;;;;;;5034573;28;20663;-72
2021/12/04 07:32:35;;;;;;;63.42;34.67;;;;;;;;;;5034264;28;20194;-71
2021/12/04 07:35:00;;;;;;;55.72;35.20;;;;;;;;;;5034594;28;20201;-71
2021/12/04 07:37:25;;;;;;;68.30;44.08;;;;;;;;;;5034303;28;20636;-71
2021/12/04 07:39:51;;;;;;;58.60;36.05;;;;;;;;;;5033224;28;20171;-71
2021/12/04 07:42:16;;;;;;;56.55;37.10;;;;;;;;;;5034261;28;20250;-71
2021/12/04 07:44:42;;;;;;;55.40;33.33;;;;;;;;;;5034041;28;20585;-71
2021/12/04 07:47:07;;;;;;;46.03;30.50;;;;;;;;;;5034164;28;20246;-71
2021/12/04 07:49:32;;;;;;;51.08;32.92;;;;;;;;;;5034096;28;20656;-71
2021/12/04 07:51:57;;;;;;;59.88;37.08;;;;;;;;;;5034069;28;20167;-72
2021/12/04 07:54:23;;;;;;;65.40;36.47;;;;;;;;;;5033998;28;20178;-71
2021/12/04 07:56:48;;;;;;;60.28;35.28;;;;;;;;;;5032724;28;20178;-71
2021/12/04 07:59:13;;;;;;;52.13;26.27;;;;;;;;;;5032722;28;20220;-71
2021/12/04 08:01:39;;;;;;;36.50;20.70;;;;;;;;;;5032718;28;20639;-71
2021/12/04 08:04:04;;;;;;;35.25;18.15;;;;;;;;;;5033809;28;20174;-71
2021/12/04 08:06:33;;;;;;;26.90;15.10;;;;;;;;;;5033824;28;20171;-72
2021/12/04 08:08:59;;;;;;;33.05;20.73;;;;;;;;;;5033730;28;20577;-72
2021/12/04 08:11:27;;;;;;;29.02;17.95;;;;;;;;;;5033762;28;20170;-71
2021/12/04 08:13:52;;;;;;;28.08;18.92;;;;;;;;;;5033581;28;20667;-72
2021/12/04 08:16:18;;;;;;;31.70;19.60;;;;;;;;;;5033590;28;20179;-71
2021/12/04 08:18:44;;;;;;;27.70;17.90;;;;;;;;;;5033481;28;20185;-71
2021/12/04 08:21:09;;;;;;;30.88;19.92;;;;;;;;;;5033750;28;20178;-72
2021/12/04 08:23:34;;;;;;;33.83;21.33;;;;;;;;;;5033493;28;20174;-71
2021/12/04 08:26:00;;;;;;;31.80;20.25;;;;;;;;;;5033454;28;20205;-71
2021/12/04 08:28:25;;;;;;;29.25;20.10;;;;;;;;;;5033645;28;20194;-71
2021/12/04 08:30:50;;;;;;;26.15;17.83;;;;;;;;;;5033623;28;20249;-71
2021/12/04 08:33:16;;;;;;;25.52;18.95;;;;;;;;;;5033243;28;20191;-72
2021/12/04 08:35:42;;;;;;;25.67;18.27;;;;;;;;;;5033354;28;20178;-71
2021/12/04 08:38:08;;;;;;;26.98;19.10;;;;;;;;;;5033209;28;20660;-71
2021/12/04 08:40:33;;;;;;;21.08;15.70;;;;;;;;;;5033129;28;20254;-71
2021/12/04 08:42:59;;;;;;;17.27;13.63;;;;;;;;;;5033068;28;20269;-71
2021/12/04 08:45:24;;;;;;;35.03;22.80;;;;;;;;;;5032982;28;20202;-71
2021/12/04 08:47:50;;;;;;;45.95;31.27;;;;;;;;;;5032998;28;20185;-71
2021/12/04 08:50:16;;;;;;;51.40;31.77;;;;;;;;;;5032997;28;20173;-71
2021/12/04 08:52:42;;;;;;;59.17;39.80;;;;;;;;;;5032733;28;20665;-71
2021/12/04 08:55:08;;;;;;;31.67;23.35;;;;;;;;;;5033130;28;20213;-71
2021/12/04 08:57:33;;;;;;;24.92;18.17;;;;;;;;;;5032876;28;20265;-72
2021/12/04 08:59:59;;;;;;;23.88;17.42;;;;;;;;;;5032770;28;20265;-71
2021/12/04 09:02:24;;;;;;;28.48;19.25;;;;;;;;;;5032808;28;20193;-71
2021/12/04 09:04:50;;;;;;;22.70;18.15;;;;;;;;;;5032942;28;20202;-71
2021/12/04 09:07:18;;;;;;;20.90;15.57;;;;;;;;;;5033332;28;20193;-71
2021/12/04 09:09:43;;;;;;;18.33;14.98;;;;;;;;;;5032802;28;20300;-71
2021/12/04 09:12:10;;;;;;;18.92;13.75;;;;;;;;;;5032588;28;20604;-71
2021/12/04 09:14:36;;;;;;;20.55;14.63;;;;;;;;;;5032419;28;20628;-71
2021/12/04 09:17:05;;;;;;;20.80;15.30;;;;;;;;;;5032719;28;20217;-72
2021/12/04 09:19:30;;;;;;;22.23;16.23;;;;;;;;;;5032533;28;20178;-72
2021/12/04 09:21:57;;;;;;;24.55;15.85;;;;;;;;;;5032390;28;20193;-72
2021/12/04 09:24:28;;;;;;;30.52;22.20;;;;;;;;;;5032259;28;20288;-71
2021/12/04 10:18:38;;;;;;;24.70;17.00;;;;;;;;;;5037600;28;20209;-72
2021/12/04 10:34:32;;;;;;;115.03;46.75;;;;;;;;;;5038578;28;20170;-72
2021/12/04 10:37:07;;;;;;;63.00;30.00;;;;;;;;;;5038068;28;20174;-72
2021/12/04 10:39:34;;;;;;;82.78;35.47;;;;;;;;;;5038054;28;20248;-71
2021/12/04 10:42:02;;;;;;;93.28;41.78;;;;;;;;;;5038076;28;20185;-72
2021/12/04 10:44:27;;;;;;;65.30;30.58;;;;;;;;;;5038244;28;20287;-72
2021/12/04 10:46:53;;;;;;;42.47;23.65;;;;;;;;;;5038176;28;20206;-72
2021/12/04 10:49:28;;;;;;;37.22;21.60;;;;;;;;;;5038000;28;20268;-72
2021/12/04 10:52:02;;;;;;;46.72;27.75;;;;;;;;;;5038363;28;20601;-71
2021/12/04 10:54:31;;;;;;;56.70;33.75;;;;;;;;;;5038067;28;20647;-71
2021/12/04 11:00:19;;;;;;;40.30;25.80;;;;;;;;;;5018879;28;20273;-71
2021/12/04 11:02:50;;;;;;;19.52;14.30;;;;;;;;;;5037993;28;20174;-71
2021/12/04 11:19:50;;;;;;;18.15;14.27;;;;;;;;;;5034958;28;20582;-71
2021/12/04 11:41:25;;;;;;;19.77;16.80;;;;;;;;;;5034711;28;20208;-71
2021/12/04 11:44:04;;;;;;;19.75;16.80;;;;;;;;;;5034411;28;20150;-71
2021/12/04 11:46:42;;;;;;;19.65;15.35;;;;;;;;;;5034159;28;20249;-71
2021/12/04 11:49:13;;;;;;;19.17;14.75;;;;;;;;;;5034481;28;20162;-71
2021/12/04 11:51:58;;;;;;;20.58;14.98;;;;;;;;;;5034291;28;20170;-71
2021/12/04 11:54:33;;;;;;;20.13;14.73;;;;;;;;;;5034030;28;20151;-71
2021/12/04 11:57:07;;;;;;;18.40;13.95;;;;;;;;;;5034090;28;20147;-71
2021/12/04 11:59:33;;;;;;;16.08;11.63;;;;;;;;;;5034207;28;20170;-71
2021/12/04 12:02:00;;;;;;;19.50;12.30;;;;;;;;;;5033886;28;20174;-71
2021/12/04 12:04:39;;;;;;;14.52;12.32;;;;;;;;;;5034017;28;20212;-71
2021/12/04 12:07:10;;;;;;;20.55;15.63;;;;;;;;;;5033908;28;20193;-72
2021/12/04 12:09:37;;;;;;;22.00;16.13;;;;;;;;;;5034032;28;20171;-72
2021/12/04 12:12:04;;;;;;;27.38;19.63;;;;;;;;;;5033779;28;20166;-71
2021/12/04 12:14:40;;;;;;;16.65;14.15;;;;;;;;;;5033901;28;20202;-72
2021/12/04 12:17:07;;;;;;;19.83;16.40;;;;;;;;;;5034262;28;20647;-71
2021/12/04 12:19:38;;;;;;;52.47;30.92;;;;;;;;;;5033989;28;20175;-72
2021/12/04 12:22:11;;;;;;;49.72;30.58;;;;;;;;;;5033678;28;20232;-71
2021/12/04 12:38:07;;;;;;;23.77;18.23;;;;;;;;;;5033703;28;20264;-71
2021/12/04 12:40:32;;;;;;;25.02;18.25;;;;;;;;;;5033442;28;20663;-72
2021/12/04 12:43:07;;;;;;;25.25;19.48;;;;;;;;;;5033286;28;20607;-73
2021/12/04 12:45:34;;;;;;;25.15;18.00;;;;;;;;;;5031872;28;20208;-70
2021/12/04 12:48:01;;;;;;;26.60;18.20;;;;;;;;;;5033958;28;20159;-71
2021/12/04 12:50:29;;;;;;;25.27;16.52;;;;;;;;;;5033031;28;20168;-72
2021/12/04 12:53:03;;;;;;;29.45;19.50;;;;;;;;;;5033198;28;20213;-72
2021/12/04 12:55:32;;;;;;;27.25;19.10;;;;;;;;;;5032778;28;20174;-72
2021/12/04 12:57:58;;;;;;;22.15;16.52;;;;;;;;;;5033096;28;20629;-71
2021/12/04 13:11:54;;;;;;;63.58;33.65;;;;;;;;;;5032885;28;20212;-72
2021/12/04 13:14:28;;;;;;;57.15;34.45;;;;;;;;;;5032246;28;20683;-72
2021/12/04 13:16:56;;;;;;;26.65;19.13;;;;;;;;;;5032469;28;20167;-72
2021/12/04 13:19:23;;;;;;;59.60;31.77;;;;;;;;;;5032395;28;20174;-72
2021/12/04 13:21:50;;;;;;;230.77;89.82;;;;;;;;;;5032384;28;20178;-72
2021/12/04 13:24:16;;;;;;;121.50;50.10;;;;;;;;;;5032712;28;20649;-72
2021/12/04 13:26:43;;;;;;;141.80;53.83;;;;;;;;;;5032241;28;20176;-72
2021/12/04 13:29:09;;;;;;;97.65;38.17;;;;;;;;;;5032376;28;20261;-72
2021/12/04 13:31:37;;;;;;;49.80;23.73;;;;;;;;;;5032228;28;20277;-72
2021/12/04 13:34:03;;;;;;;29.38;17.13;;;;;;;;;;5032315;28;20234;-72
2021/12/04 13:36:31;;;;;;;25.98;16.40;;;;;;;;;;5032417;28;20236;-72
2021/12/04 13:38:57;;;;;;;18.95;12.50;;;;;;;;;;5031480;28;20178;-71
2021/12/04 13:41:22;;;;;;;12.98;11.18;;;;;;;;;;5032067;28;20228;-72
2021/12/04 13:43:54;;;;;;;13.50;11.00;;;;;;;;;;5032299;28;20170;-72
2021/12/04 13:46:19;;;;;;;13.20;10.25;;;;;;;;;;5032135;28;20200;-71
2021/12/04 13:48:45;;;;;;;17.48;12.25;;;;;;;;;;5032188;28;20166;-72
2021/12/04 13:51:11;;;;;;;17.58;12.18;;;;;;;;;;5032130;28;20177;-71
2021/12/04 13:53:37;;;;;;;18.83;12.23;;;;;;;;;;5031926;28;20170;-72
2021/12/04 13:56:05;;;;;;;16.40;11.95;;;;;;;;;;5031891;28;20166;-72
2021/12/04 13:58:30;;;;;;;17.00;12.77;;;;;;;;;;5030593;28;20185;-72
2021/12/04 14:00:58;;;;;;;18.50;13.38;;;;;;;;;;5032128;28;20652;-74
2021/12/04 14:03:25;;;;;;;17.38;14.73;;;;;;;;;;5030514;28;20178;-72
2021/12/04 14:05:50;;;;;;;18.08;14.85;;;;;;;;;;5032038;28;20259;-72
2021/12/04 14:08:16;;;;;;;21.70;13.00;;;;;;;;;;5031758;28;20249;-72
2021/12/04 14:10:42;;;;;;;22.85;15.68;;;;;;;;;;5031806;28;20229;-73
2021/12/04 14:13:09;;;;;;;22.38;16.55;;;;;;;;;;5032035;28;20175;-71
2021/12/04 14:15:35;;;;;;;29.20;20.60;;;;;;;;;;5031770;28;20229;-71
2021/12/04 14:18:06;;;;;;;17.75;13.60;;;;;;;;;;5031532;28;20201;-71
2021/12/04 14:20:32;;;;;;;26.45;17.65;;;;;;;;;;5031838;28;20175;-71
2021/12/04 14:22:57;;;;;;;21.35;15.65;;;;;;;;;;5031845;28;20213;-71
2021/12/04 14:25:24;;;;;;;17.17;11.82;;;;;;;;;;5031712;28;20234;-71
2021/12/04 14:27:50;;;;;;;21.70;13.20;;;;;;;;;;5031717;28;20174;-71
2021/12/04 14:30:17;;;;;;;16.80;12.25;;;;;;;;;;5031642;28;20170;-72
2021/12/04 14:32:45;;;;;;;53.45;32.80;;;;;;;;;;5031483;28;20660;-72
2021/12/04 14:35:15;;;;;;;20.98;12.75;;;;;;;;;;5030170;28;20213;-72
2021/12/04 14:37:41;;;;;;;18.90;13.30;;;;;;;;;;5030210;28;20186;-72
2021/12/04 14:40:08;;;;;;;48.08;25.08;;;;;;;;;;5031808;28;20175;-72
2021/12/04 14:42:34;;;;;;;41.95;24.65;;;;;;;;;;5030273;28;20229;-72
2021/12/04 14:45:02;;;;;;;30.48;19.67;;;;;;;;;;5031658;28;20304;-72
2021/12/04 14:47:29;;;;;;;28.42;17.83;;;;;;;;;;5031727;28;20232;-72
2021/12/04 14:49:59;;;;;;;21.88;15.27;;;;;;;;;;5033639;28;20236;-72
2021/12/04 14:52:25;;;;;;;29.13;18.70;;;;;;;;;;5035173;28;20764;-72
2021/12/04 14:54:51;;;;;;;31.38;18.55;;;;;;;;;;5035363;28;20170;-72
2021/12/04 14:57:17;;;;;;;29.52;18.83;;;;;;;;;;5035621;28;20167;-72
2021/12/04 14:59:43;;;;;;;39.80;22.73;;;;;;;;;;5035047;28;20246;-72
2021/12/04 15:02:12;;;;;;;24.70;16.80;;;;;;;;;;5035255;28;20190;-72
2021/12/04 15:04:39;;;;;;;25.42;17.45;;;;;;;;;;5034944;28;20556;-72
2021/12/04 15:07:04;;;;;;;20.73;14.60;;;;;;;;;;5035247;28;20170;-72
2021/12/04 15:09:29;;;;;;;20.42;13.85;;;;;;;;;;5034942;28;20251;-72
2021/12/04 15:11:55;;;;;;;17.58;12.75;;;;;;;;;;5035100;28;20273;-71
2021/12/04 15:14:30;;;;;;;21.00;14.68;;;;;;;;;;5034936;28;20190;-72
2021/12/04 15:16:59;;;;;;;31.77;20.58;;;;;;;;;;5034900;28;20245;-72
2021/12/04 15:19:29;;;;;;;26.40;18.02;;;;;;;;;;5034777;28;20162;-72
2021/12/04 15:21:57;;;;;;;21.80;14.00;;;;;;;;;;5034715;28;20173;-72
2021/12/04 15:24:25;;;;;;;17.23;12.23;;;;;;;;;;5034643;28;20190;-72
2021/12/04 15:26:52;;;;;;;24.10;16.17;;;;;;;;;;5034849;28;20178;-72
2021/12/04 15:29:18;;;;;;;23.10;15.55;;;;;;;;;;5034851;28;20208;-72
2021/12/04 15:31:44;;;;;;;18.08;13.48;;;;;;;;;;5034428;28;20660;-72
2021/12/04 15:34:10;;;;;;;19.10;13.18;;;;;;;;;;5034386;28;20225;-72
2021/12/04 15:36:38;;;;;;;22.63;14.32;;;;;;;;;;5034683;28;20600;-72
2021/12/04 15:39:09;;;;;;;17.98;12.50;;;;;;;;;;5034266;28;20181;-72
2021/12/04 15:53:31;;;;;;;21.45;15.00;;;;;;;;;;5012314;28;20190;-71
2021/12/04 15:55:39;;;;;;;28.52;17.00;;;;;;;;;;5023118;28;20590;-72
2021/12/04 15:58:12;;;;;;;22.67;14.07;;;;;;;;;;5034109;28;20175;-72
2021/12/04 16:00:43;;;;;;;26.02;16.50;;;;;;;;;;5033192;28;20660;-72
2021/12/04 16:03:10;;;;;;;22.98;15.98;;;;;;;;;;5034050;28;20274;-72
2021/12/04 16:05:38;;;;;;;31.88;18.83;;;;;;;;;;5034118;28;20226;-71
2021/12/04 16:08:09;;;;;;;28.83;19.48;;;;;;;;;;5033776;28;20171;-71
2021/12/04 16:10:36;;;;;;;44.88;27.95;;;;;;;;;;5033933;28;20201;-72
2021/12/04 16:13:03;;;;;;;48.35;31.88;;;;;;;;;;5033583;28;20636;-72
2021/12/04 16:15:29;;;;;;;52.40;32.88;;;;;;;;;;5033492;28;20695;-72
2021/12/04 16:17:54;;;;;;;41.70;27.13;;;;;;;;;;5033631;28;20288;-71
2021/12/04 16:20:21;;;;;;;102.20;54.53;;;;;;;;;;5034360;28;20212;-71
2021/12/04 16:22:48;;;;;;;104.18;60.67;;;;;;;;;;5033454;28;20239;-71
2021/12/04 16:25:20;;;;;;;81.90;47.47;;;;;;;;;;5033361;28;20683;-72
2021/12/04 16:27:55;;;;;;;82.60;50.08;;;;;;;;;;5033379;28;20178;-72
2021/12/04 16:37:47;;;;;;;64.80;40.08;;;;;;;;;;5033475;28;20174;-71
2021/12/04 16:40:12;;;;;;;53.85;33.22;;;;;;;;;;5033424;28;20225;-72
2021/12/04 16:42:38;;;;;;;50.00;30.20;;;;;;;;;;5033055;28;20603;-72
2021/12/04 16:45:04;;;;;;;28.30;20.50;;;;;;;;;;5031771;28;20293;-72
2021/12/04 16:47:30;;;;;;;26.70;18.35;;;;;;;;;;5033046;28;20177;-72
2021/12/04 16:49:55;;;;;;;27.98;17.80;;;;;;;;;;5032968;28;20178;-72
2021/12/04 16:55:23;;;;;;;23.63;16.52;;;;;;;;;;5033373;28;20169;-72
2021/12/04 16:57:58;;;;;;;35.25;24.63;;;;;;;;;;5033014;28;20174;-72
2021/12/04 17:00:25;;;;;;;28.80;19.52;;;;;;;;;;5033062;28;20166;-72
2021/12/04 17:02:51;;;;;;;21.63;15.50;;;;;;;;;;5032691;28;20182;-72
2021/12/04 17:05:17;;;;;;;20.58;14.27;;;;;;;;;;5032889;28;20256;-72
2021/12/04 17:07:42;;;;;;;26.20;16.60;;;;;;;;;;5032919;28;20171;-71
2021/12/04 17:10:09;;;;;;;24.88;19.02;;;;;;;;;;5031393;28;20178;-71
2021/12/04 17:12:37;;;;;;;25.02;18.02;;;;;;;;;;5032481;28;20171;-72
2021/12/04 17:15:03;;;;;;;28.02;18.88;;;;;;;;;;5032445;28;20214;-72
2021/12/04 17:17:31;;;;;;;34.45;22.63;;;;;;;;;;5032710;28;20174;-71
2021/12/04 17:19:59;;;;;;;29.15;20.33;;;;;;;;;;5032770;28;20175;-71
2021/12/04 17:22:26;;;;;;;29.77;18.02;;;;;;;;;;5032480;28;20220;-72
2021/12/04 17:24:51;;;;;;;24.17;16.77;;;;;;;;;;5032392;28;20247;-73
2021/12/04 17:27:16;;;;;;;20.88;14.35;;;;;;;;;;5032290;28;20170;-72
2021/12/04 17:29:43;;;;;;;24.58;16.70;;;;;;;;;;5032609;28;20174;-73
2021/12/04 17:32:08;;;;;;;23.52;14.60;;;;;;;;;;5032592;28;20198;-73
2021/12/04 17:34:34;;;;;;;19.52;14.30;;;;;;;;;;5032390;28;20171;-71
2021/12/04 17:36:59;;;;;;;18.02;12.68;;;;;;;;;;5032228;28;20225;-72
2021/12/04 17:39:24;;;;;;;19.00;13.18;;;;;;;;;;5032199;28;20642;-71
2021/12/04 17:41:50;;;;;;;19.65;14.30;;;;;;;;;;5032190;28;20163;-72
2021/12/04 17:44:19;;;;;;;18.95;14.65;;;;;;;;;;5032156;28;20166;-71
2021/12/04 17:46:45;;;;;;;17.63;13.05;;;;;;;;;;5032098;28;20645;-71
2021/12/04 17:49:11;;;;;;;15.48;12.20;;;;;;;;;;5032061;28;20177;-71
2021/12/04 17:51:36;;;;;;;15.27;11.25;;;;;;;;;;5032271;28;20261;-71